Time;durP1;ratioP1;P1;durP2;ratioP2;P2;SDS_P1;SDS_P2;PMS_P1;PMS_P2;Temp;Humidity;BMP_temperature;BMP_pressure;BME280_temperature;BME280_humidity;BME280_pressure;Samples;Min_cycle;Max_cycle;Signal;HPM_P1;HPM_P2
2021/11/12 00:04:07;;;;;;;;;;;;;;;5.73;56.11;101439.89;117445;1185;23419;-61
2021/11/12 00:14:50;;;;;;;;;;;;;;;5.59;56.07;101426.13;117341;1183;21835;-60
2021/11/12 00:17:19;;;;;;;;;;;;;;;5.57;56.30;101423.48;117433;1185;22951;-60
2021/11/12 00:19:49;;;;;;;;;;;;;;;5.56;56.07;101421.01;117444;1179;24242;-60
2021/11/12 00:22:17;;;;;;;;;;;;;;;5.56;56.05;101420.65;117440;1185;24140;-60
2021/11/12 00:24:46;;;;;;;;;;;;;;;5.57;56.25;101415.11;117290;1184;24153;-60
2021/11/12 00:27:15;;;;;;;;;;;;;;;5.59;56.00;101416.40;117321;1186;24137;-60
2021/11/12 00:32:40;;;;;;;;;;;;;;;5.72;56.14;101417.90;117461;1183;22899;-60
2021/11/12 00:38:29;;;;;;;;;;;;;;;5.85;56.33;101409.52;117198;1186;23537;-61
2021/11/12 00:46:09;;;;;;;;;;;;;;;5.97;56.49;101408.23;117280;1183;22608;-60
2021/11/12 00:48:46;;;;;;;;;;;;;;;6.01;56.28;101408.15;117340;1189;21869;-61
2021/11/12 00:53:54;;;;;;;;;;;;;;;6.02;56.31;101404.55;117436;1186;21829;-61
2021/11/12 00:56:23;;;;;;;;;;;;;;;6.03;56.43;101401.27;117500;1184;21829;-61
2021/11/12 00:58:52;;;;;;;;;;;;;;;6.05;56.41;101394.86;117387;1184;23528;-61
2021/11/12 01:01:21;;;;;;;;;;;;;;;6.05;56.44;101392.42;117459;1180;23471;-61
2021/11/12 01:03:49;;;;;;;;;;;;;;;6.06;56.44;101385.29;117533;1184;23522;-61
2021/11/12 01:06:18;;;;;;;;;;;;;;;6.19;56.39;101388.02;117561;1184;21837;-61
2021/11/12 01:08:48;;;;;;;;;;;;;;;6.28;56.66;101381.59;117486;1186;23445;-61
2021/11/12 01:11:16;;;;;;;;;;;;;;;6.30;56.59;101381.98;117454;1183;22921;-62
2021/11/12 01:13:46;;;;;;;;;;;;;;;6.34;56.87;101383.98;117449;1183;22591;-61
2021/11/12 01:16:14;;;;;;;;;;;;;;;6.40;56.71;101377.48;117511;1182;22605;-61
2021/11/12 01:18:43;;;;;;;;;;;;;;;6.46;56.88;101378.64;117492;1182;23537;-61
2021/11/12 01:21:12;;;;;;;;;;;;;;;6.51;56.85;101379.45;117554;1184;22957;-62
2021/11/12 01:23:40;;;;;;;;;;;;;;;6.55;56.84;101378.14;117517;1180;21836;-62
2021/11/12 01:26:08;;;;;;;;;;;;;;;6.59;56.71;101375.59;117540;1183;22915;-61
2021/11/12 01:28:38;;;;;;;;;;;;;;;6.61;56.73;101374.93;117560;1184;21839;-62
2021/11/12 01:31:06;;;;;;;;;;;;;;;6.63;56.68;101372.54;117488;1183;22702;-61
2021/11/12 01:33:37;;;;;;;;;;;;;;;6.64;56.72;101369.07;117475;1176;21833;-62
2021/11/12 01:36:20;;;;;;;;;;;;;;;6.62;56.62;101366.61;117572;1183;22790;-61
2021/11/12 01:38:50;;;;;;;;;;;;;;;6.62;56.62;101364.33;117330;1183;21909;-62
2021/11/12 01:41:20;;;;;;;;;;;;;;;6.61;56.74;101367.65;117444;1183;24121;-61
2021/11/12 01:43:52;;;;;;;;;;;;;;;6.60;56.68;101370.05;117454;1185;22599;-61
2021/11/12 01:51:46;;;;;;;;;;;;;;;6.55;56.53;101381.98;117426;1186;21836;-61
2021/11/12 01:56:58;;;;;;;;;;;;;;;6.57;56.65;101389.33;117531;1182;23531;-62
2021/11/12 01:59:26;;;;;;;;;;;;;;;6.56;56.72;101389.15;117527;1186;21951;-61
2021/11/12 02:01:57;;;;;;;;;;;;;;;6.56;56.57;101394.20;117465;1182;23150;-61
2021/11/12 02:04:34;;;;;;;;;;;;;;;6.55;56.54;101397.85;117400;1186;23618;-61
2021/11/12 02:07:03;;;;;;;;;;;;;;;6.54;56.47;101402.89;117483;1183;21838;-62
2021/11/12 02:09:31;;;;;;;;;;;;;;;6.53;56.53;101401.29;117463;1185;21836;-61
2021/11/12 02:12:06;;;;;;;;;;;;;;;6.50;56.59;101401.39;117543;1182;22597;-61
2021/11/12 02:14:34;;;;;;;;;;;;;;;6.46;56.51;101399.39;117421;1183;21835;-61
2021/11/12 02:17:15;;;;;;;;;;;;;;;6.42;56.49;101399.31;117540;1183;22628;-61
2021/11/12 02:19:51;;;;;;;;;;;;;;;6.38;56.60;101404.82;117458;1183;23429;-61
2021/11/12 02:22:20;;;;;;;;;;;;;;;6.35;56.13;101401.09;117403;1182;23497;-61
2021/11/12 02:24:51;;;;;;;;;;;;;;;6.33;56.61;101400.17;117501;1185;23548;-61
2021/11/12 02:27:21;;;;;;;;;;;;;;;6.30;56.38;101400.47;117397;1186;24132;-62
2021/11/12 02:29:53;;;;;;;;;;;;;;;6.34;56.52;101402.99;117485;1186;23459;-61
2021/11/12 02:32:23;;;;;;;;;;;;;;;6.36;56.41;101402.16;117381;1182;21840;-61
2021/11/12 02:34:52;;;;;;;;;;;;;;;6.36;56.59;101400.95;117462;1184;21819;-61
2021/11/12 02:37:20;;;;;;;;;;;;;;;6.38;56.50;101400.80;117481;1182;22059;-61
2021/11/12 02:39:49;;;;;;;;;;;;;;;6.39;56.65;101400.84;117428;1186;23524;-61
2021/11/12 02:42:17;;;;;;;;;;;;;;;6.41;56.69;101397.38;117532;1179;22911;-62
2021/11/12 02:44:45;;;;;;;;;;;;;;;6.42;56.64;101400.70;117461;1183;22715;-61
2021/11/12 02:47:14;;;;;;;;;;;;;;;6.45;56.58;101401.98;117504;1183;22796;-61
2021/11/12 02:49:43;;;;;;;;;;;;;;;6.48;56.64;101403.81;117476;1183;23445;-62
2021/11/12 02:52:11;;;;;;;;;;;;;;;6.50;56.53;101407.33;117424;1182;24136;-61
2021/11/12 02:54:40;;;;;;;;;;;;;;;6.49;56.69;101410.27;117457;1183;21826;-62
2021/11/12 02:57:08;;;;;;;;;;;;;;;6.48;56.59;101406.25;117486;1185;21838;-63
2021/11/12 02:59:38;;;;;;;;;;;;;;;6.47;56.64;101409.18;117483;1183;24145;-62
2021/11/12 03:02:08;;;;;;;;;;;;;;;6.45;56.72;101410.36;117474;1176;21828;-62
2021/11/12 03:04:36;;;;;;;;;;;;;;;6.42;56.57;101411.33;117554;1186;21834;-61
2021/11/12 03:07:04;;;;;;;;;;;;;;;6.39;56.49;101403.27;117507;1182;21845;-62
2021/11/12 03:09:33;;;;;;;;;;;;;;;6.33;56.65;101399.64;117501;1186;23423;-61
2021/11/12 03:12:15;;;;;;;;;;;;;;;6.31;56.63;101400.83;117497;1186;23517;-61
2021/11/12 03:14:44;;;;;;;;;;;;;;;6.29;56.37;101401.48;117458;1182;23423;-61
2021/11/12 03:17:12;;;;;;;;;;;;;;;6.26;56.44;101400.20;117411;1185;21838;-61
2021/11/12 03:19:40;;;;;;;;;;;;;;;6.23;56.34;101399.95;117305;1186;21848;-64
2021/11/12 03:22:12;;;;;;;;;;;;;;;6.21;56.54;101397.66;117563;1182;21848;-62
2021/11/12 03:24:45;;;;;;;;;;;;;;;6.18;56.57;101398.80;117511;1184;21838;-62
2021/11/12 05:12:58;;;;;;;;;;;;;;;6.37;56.92;101380.58;117571;1185;23435;-63
2021/11/12 05:51:43;;;;;;;;;;;;;;;6.80;56.86;101406.89;117497;1185;23456;-62
2021/11/12 05:56:59;;;;;;;;;;;;;;;6.83;56.84;101410.42;117439;1183;21828;-65
2021/11/12 05:59:27;;;;;;;;;;;;;;;6.87;57.09;101412.77;117418;1185;22153;-63
2021/11/12 06:01:55;;;;;;;;;;;;;;;6.91;57.12;101408.32;117504;1182;22922;-62
2021/11/12 06:04:23;;;;;;;;;;;;;;;6.95;57.06;101409.09;117531;1183;21835;-65
2021/11/12 06:06:52;;;;;;;;;;;;;;;7.02;57.19;101406.44;117563;1185;23432;-61
2021/11/12 06:09:21;;;;;;;;;;;;;;;7.09;57.17;101411.98;117526;1182;24133;-61
2021/11/12 06:11:53;;;;;;;;;;;;;;;7.17;57.22;101409.85;117556;1185;21845;-61
2021/11/12 06:14:22;;;;;;;;;;;;;;;7.25;57.37;101407.38;117527;1185;21855;-64
2021/11/12 06:16:51;;;;;;;;;;;;;;;7.32;57.31;101406.62;117524;1186;21848;-61
2021/11/12 06:19:20;;;;;;;;;;;;;;;7.41;57.28;101403.63;117511;1185;22170;-65
2021/11/12 06:21:49;;;;;;;;;;;;;;;7.47;57.28;101406.71;117509;1185;21835;-65
2021/11/12 06:24:17;;;;;;;;;;;;;;;7.52;57.33;101406.61;117516;1182;24129;-65
2021/11/12 06:26:46;;;;;;;;;;;;;;;7.58;57.47;101404.09;117473;1176;23442;-61
2021/11/12 06:29:14;;;;;;;;;;;;;;;7.63;57.39;101398.06;117488;1185;21839;-61
2021/11/12 06:31:43;;;;;;;;;;;;;;;7.67;57.44;101399.54;117467;1183;23558;-61
2021/11/12 06:34:11;;;;;;;;;;;;;;;7.74;57.46;101399.48;117363;1182;23525;-65
2021/11/12 06:36:39;;;;;;;;;;;;;;;7.83;57.45;101398.20;117462;1183;21848;-65
2021/11/12 06:39:09;;;;;;;;;;;;;;;7.95;57.37;101398.55;117417;1186;21888;-60
2021/11/12 06:49:38;;;;;;;;;;;;;;;8.48;57.66;101393.70;117484;1185;23525;-59
2021/11/12 06:52:07;;;;;;;;;;;;;;;8.61;57.61;101390.02;117381;1185;21836;-66
2021/11/12 06:54:35;;;;;;;;;;;;;;;8.73;57.52;101388.94;117418;1185;23507;-60
2021/11/12 06:57:04;;;;;;;;;;;;;;;8.85;57.72;101388.03;117400;1183;22629;-64
2021/11/12 06:59:32;;;;;;;;;;;;;;;8.99;57.71;101385.02;117428;1182;21892;-60
2021/11/12 07:02:00;;;;;;;;;;;;;;;9.14;57.85;101386.21;117366;1185;23506;-59
2021/11/12 07:04:29;;;;;;;;;;;;;;;9.28;57.82;101390.71;117380;1183;23445;-65
2021/11/12 07:06:58;;;;;;;;;;;;;;;9.41;57.88;101393.12;117372;1182;23525;-65
2021/11/12 07:09:26;;;;;;;;;;;;;;;9.55;57.80;101390.08;117442;1183;21963;-64
2021/11/12 07:11:55;;;;;;;;;;;;;;;9.69;57.81;101387.91;117470;1185;23550;-59
2021/11/12 07:14:23;;;;;;;;;;;;;;;9.82;57.85;101384.86;117412;1183;23478;-63
2021/11/12 07:16:51;;;;;;;;;;;;;;;9.95;57.80;101376.52;117375;1176;23426;-64
2021/11/12 07:19:20;;;;;;;;;;;;;;;10.06;57.75;101376.06;117360;1185;24133;-63
2021/11/12 07:21:48;;;;;;;;;;;;;;;10.17;57.84;101375.95;117388;1183;22915;-62
2021/11/12 07:24:19;;;;;;;;;;;;;;;10.27;57.82;101372.66;117371;1185;23426;-58
2021/11/12 07:26:47;;;;;;;;;;;;;;;10.36;57.88;101372.36;117428;1186;21876;-59
2021/11/12 07:29:18;;;;;;;;;;;;;;;10.47;57.90;101367.88;117402;1188;21839;-65
2021/11/12 07:31:46;;;;;;;;;;;;;;;10.58;57.90;101365.64;117310;1182;23449;-60
2021/11/12 07:34:14;;;;;;;;;;;;;;;10.66;57.87;101366.36;117368;1185;21970;-59
2021/11/12 07:36:52;;;;;;;;;;;;;;;10.71;57.90;101369.36;117377;1182;23528;-67
2021/11/12 07:47:16;;;;;;;;;;;;;;;11.26;58.23;101361.20;117380;1182;23528;-61
2021/11/12 07:49:48;;;;;;;;;;;;;;;11.42;58.24;101359.80;117447;1183;23426;-66
2021/11/12 07:52:17;;;;;;;;;;;;;;;11.57;58.32;101361.38;117362;1182;25099;-60
2021/11/12 07:54:45;;;;;;;;;;;;;;;11.70;58.26;101357.85;117599;1186;21838;-66
2021/11/12 07:57:13;;;;;;;;;;;;;;;11.84;58.22;101356.95;117509;1183;21836;-65
2021/11/12 07:59:41;;;;;;;;;;;;;;;11.97;58.22;101352.01;117534;1185;24143;-59
2021/11/12 08:02:13;;;;;;;;;;;;;;;12.08;58.18;101352.71;117501;1182;21836;-59
2021/11/12 08:04:45;;;;;;;;;;;;;;;12.17;58.08;101353.53;117557;1182;21958;-65
2021/11/12 08:07:14;;;;;;;;;;;;;;;12.25;58.27;101348.77;117509;1185;22097;-59
2021/11/12 08:12:19;;;;;;;;;;;;;;;12.44;58.21;101342.36;117449;1186;23528;-65
2021/11/12 08:17:41;;;;;;;;;;;;;;;12.63;58.09;101343.67;117476;1182;23525;-60
2021/11/12 08:26:11;;;;;;;;;;;;;;;12.84;57.91;101340.02;117006;1188;23532;-65
2021/11/12 08:35:32;;;;;;;;;;;;;;;12.95;58.06;101329.57;117482;1186;23536;-65
2021/11/12 08:45:34;;;;;;;;;;;;;;;13.01;58.18;101326.19;117475;1186;23534;-60
2021/11/12 08:48:06;;;;;;;;;;;;;;;13.05;58.08;101322.98;117446;1182;21913;-64
2021/11/12 08:50:36;;;;;;;;;;;;;;;13.09;58.14;101318.71;117425;1183;23426;-58
2021/11/12 08:53:07;;;;;;;;;;;;;;;13.17;58.21;101319.38;117430;1185;21839;-64
2021/11/12 08:55:35;;;;;;;;;;;;;;;13.21;58.08;101313.70;117378;1182;21841;-65
2021/11/12 08:58:05;;;;;;;;;;;;;;;13.25;58.21;101312.77;117405;1186;21891;-64
2021/11/12 09:00:34;;;;;;;;;;;;;;;13.27;58.14;101312.23;117502;1185;23626;-65
2021/11/12 09:03:02;;;;;;;;;;;;;;;13.33;58.10;101314.11;117523;1183;22890;-58
2021/11/12 09:05:31;;;;;;;;;;;;;;;13.44;57.95;101309.65;117532;1176;24126;-65
2021/11/12 09:08:00;;;;;;;;;;;;;;;13.53;57.95;101303.21;117512;1183;23427;-59
2021/11/12 09:10:47;;;;;;;;;;;;;;;13.66;58.00;101301.67;117469;1184;21878;-63
2021/11/12 09:13:25;;;;;;;;;;;;;;;13.76;58.05;101299.27;117532;1183;24132;-60
2021/11/12 09:15:54;;;;;;;;;;;;;;;13.87;58.19;101296.33;117445;1182;23449;-63
2021/11/12 09:18:23;;;;;;;;;;;;;;;13.98;57.92;101289.85;117620;1182;21844;-64
2021/11/12 09:20:51;;;;;;;;;;;;;;;14.05;57.92;101289.77;117558;1182;23525;-60
2021/11/12 09:23:20;;;;;;;;;;;;;;;14.12;57.92;101283.86;117523;1182;23472;-65
2021/11/12 09:25:48;;;;;;;;;;;;;;;14.20;57.98;101284.83;117520;1185;21839;-60
2021/11/12 09:28:16;;;;;;;;;;;;;;;14.28;57.89;101281.36;117494;1182;23496;-60
2021/11/12 09:30:45;;;;;;;;;;;;;;;14.37;57.91;101279.66;117438;1182;24144;-60
2021/11/12 09:33:13;;;;;;;;;;;;;;;14.48;58.12;101279.50;117564;1185;23881;-60
2021/11/12 09:35:41;;;;;;;;;;;;;;;14.62;58.04;101281.42;117505;1183;21807;-64
2021/11/12 09:38:11;;;;;;;;;;;;;;;14.73;57.89;101279.35;117581;1183;22635;-64
2021/11/12 09:40:39;;;;;;;;;;;;;;;14.77;57.80;101278.05;117525;1182;22889;-60
2021/11/12 09:43:07;;;;;;;;;;;;;;;14.76;57.75;101271.36;117528;1185;24130;-60
2021/11/12 09:45:35;;;;;;;;;;;;;;;14.78;57.67;101272.02;117556;1186;24168;-64
2021/11/12 09:48:04;;;;;;;;;;;;;;;14.86;57.78;101271.55;117546;1183;24130;-64
2021/11/12 09:50:34;;;;;;;;;;;;;;;14.89;57.70;101272.21;117496;1185;21848;-64
2021/11/12 09:53:03;;;;;;;;;;;;;;;14.88;57.64;101264.80;117583;1182;24147;-65
2021/11/12 09:55:31;;;;;;;;;;;;;;;14.92;57.87;101256.45;117553;1185;21862;-63
2021/11/12 09:58:01;;;;;;;;;;;;;;;15.02;57.91;101250.09;117529;1179;21839;-64
2021/11/12 10:00:32;;;;;;;;;;;;;;;15.15;57.96;101244.55;117368;1182;21860;-60
2021/11/12 10:03:02;;;;;;;;;;;;;;;15.21;57.82;101240.04;117341;1185;21991;-64
2021/11/12 10:05:34;;;;;;;;;;;;;;;15.28;57.87;101240.26;117444;1185;21839;-64
2021/11/12 10:08:17;;;;;;;;;;;;;;;15.44;58.00;101245.98;117384;1186;23432;-60
2021/11/12 10:10:46;;;;;;;;;;;;;;;15.46;57.79;101241.52;117397;1185;22895;-64
2021/11/12 10:13:40;;;;;;;;;;;;;;;15.53;57.77;101240.68;117516;1182;21848;-60
2021/11/12 10:18:59;;;;;;;;;;;;;;;15.74;57.94;101232.14;117499;1182;21841;-60
2021/11/12 10:21:32;;;;;;;;;;;;;;;15.82;57.91;101229.52;117536;1182;22600;-64
2021/11/12 10:24:15;;;;;;;;;;;;;;;15.91;57.87;101228.12;117508;1186;22953;-60
2021/11/12 10:26:44;;;;;;;;;;;;;;;15.99;57.79;101221.21;117404;1185;23413;-64
2021/11/12 10:29:13;;;;;;;;;;;;;;;16.04;57.67;101217.20;117530;1182;21843;-64
2021/11/12 10:31:46;;;;;;;;;;;;;;;16.08;57.69;101215.55;117459;1184;21963;-62
2021/11/12 10:34:16;;;;;;;;;;;;;;;16.09;57.70;101214.29;117522;1182;23193;-60
2021/11/12 10:36:52;;;;;;;;;;;;;;;16.20;57.92;101213.84;117560;1183;21846;-64
2021/11/12 10:39:57;;;;;;;;;;;;;;;16.23;57.61;101210.61;117483;1182;23561;-64
2021/11/12 10:42:31;;;;;;;;;;;;;;;16.31;57.69;101205.81;117456;1182;23524;-64
2021/11/12 10:45:00;;;;;;;;;;;;;;;16.42;57.76;101204.33;117531;1185;21856;-62
2021/11/12 10:47:29;;;;;;;;;;;;;;;16.49;57.52;101198.49;117425;1186;22593;-60
2021/11/12 10:49:58;;;;;;;;;;;;;;;16.52;57.51;101197.90;117540;1185;21876;-63
2021/11/12 10:52:27;;;;;;;;;;;;;;;16.48;57.52;101196.02;117537;1182;22956;-60
2021/11/12 10:55:02;;;;;;;;;;;;;;;16.52;57.62;101194.16;117615;1182;22031;-64
2021/11/12 10:57:33;;;;;;;;;;;;;;;16.62;57.67;101192.14;117621;1184;23528;-59
2021/11/12 11:00:04;;;;;;;;;;;;;;;16.70;57.58;101187.90;117533;1184;22911;-60
2021/11/12 11:02:42;;;;;;;;;;;;;;;16.74;57.61;101188.86;117479;1182;21988;-65
2021/11/12 11:05:12;;;;;;;;;;;;;;;16.75;57.27;101187.23;117373;1183;21845;-64
2021/11/12 11:07:40;;;;;;;;;;;;;;;16.69;57.33;101185.26;117376;1185;21847;-65
2021/11/12 11:10:22;;;;;;;;;;;;;;;16.71;57.39;101180.77;117363;1182;21835;-60
2021/11/12 11:12:51;;;;;;;;;;;;;;;16.78;57.46;101176.17;117280;1186;21842;-60
2021/11/12 11:15:20;;;;;;;;;;;;;;;16.91;57.74;101177.80;117437;1185;23143;-64
2021/11/12 11:18:25;;;;;;;;;;;;;;;17.04;57.58;101176.42;117429;1182;24110;-60
2021/11/12 11:21:11;;;;;;;;;;;;;;;17.03;57.89;101175.55;117407;1185;23527;-57
2021/11/12 11:23:46;;;;;;;;;;;;;;;16.96;57.67;101172.88;117508;1186;21840;-62
2021/11/12 11:26:15;;;;;;;;;;;;;;;16.91;57.70;101171.42;117529;1185;21851;-58
2021/11/12 11:28:44;;;;;;;;;;;;;;;17.06;57.57;101168.91;117420;1188;21840;-65
2021/11/12 11:31:13;;;;;;;;;;;;;;;17.17;57.56;101163.67;117442;1185;21989;-60
2021/11/12 11:33:42;;;;;;;;;;;;;;;17.26;57.50;101157.38;117470;1183;23527;-56
2021/11/12 11:36:10;;;;;;;;;;;;;;;17.32;57.44;101154.55;117312;1185;23551;-65
2021/11/12 11:38:39;;;;;;;;;;;;;;;17.30;57.21;101151.94;117568;1182;22603;-65
2021/11/12 11:41:08;;;;;;;;;;;;;;;17.25;57.13;101149.61;117519;1179;24139;-65
2021/11/12 11:43:38;;;;;;;;;;;;;;;17.22;57.11;101145.95;117482;1186;21838;-60
2021/11/12 11:46:10;;;;;;;;;;;;;;;17.23;57.12;101142.24;117503;1186;22780;-65
2021/11/12 11:48:39;;;;;;;;;;;;;;;17.31;57.18;101141.80;117473;1182;23426;-64
2021/11/12 11:51:34;;;;;;;;;;;;;;;17.41;57.22;101141.02;117510;1183;23413;-59
2021/11/12 11:54:02;;;;;;;;;;;;;;;17.51;57.21;101141.23;117535;1184;21841;-64
2021/11/12 11:56:31;;;;;;;;;;;;;;;17.59;57.18;101142.25;117425;1182;23442;-59
2021/11/12 11:59:08;;;;;;;;;;;;;;;17.68;57.15;101142.52;117525;1186;21841;-64
2021/11/12 12:01:37;;;;;;;;;;;;;;;17.74;57.01;101141.64;117496;1183;22985;-64
2021/11/12 12:04:05;;;;;;;;;;;;;;;17.73;56.91;101141.86;117418;1185;22914;-64
2021/11/12 12:06:40;;;;;;;;;;;;;;;17.59;57.00;101146.15;117454;1182;21831;-59
2021/11/12 12:09:11;;;;;;;;;;;;;;;17.41;57.13;101145.44;117462;1186;21835;-59
2021/11/12 12:11:42;;;;;;;;;;;;;;;17.28;57.14;101138.18;117359;1185;21841;-64
2021/11/12 12:14:17;;;;;;;;;;;;;;;17.24;57.10;101135.27;117500;1185;23439;-64
2021/11/12 12:17:12;;;;;;;;;;;;;;;17.19;57.33;101129.73;117528;1182;22982;-59
2021/11/12 12:19:46;;;;;;;;;;;;;;;17.31;56.98;101130.82;117570;1183;23448;-59
2021/11/12 12:30:52;;;;;;;;;;;;;;;17.31;57.02;101130.66;117481;1179;22602;-60
2021/11/12 12:37:16;;;;;;;;;;;;;;;17.35;56.99;101121.50;117395;1175;23449;-60
2021/11/12 13:25:55;;;;;;;;;;;;;;;16.45;56.39;101144.20;117425;1185;23534;-60
2021/11/12 13:28:24;;;;;;;;;;;;;;;16.40;56.25;101142.21;117509;1183;21856;-62
2021/11/12 13:30:56;;;;;;;;;;;;;;;16.33;56.31;101142.73;117531;1182;23196;-59
2021/11/12 13:33:25;;;;;;;;;;;;;;;16.20;56.33;101143.54;117523;1182;21837;-59
2021/11/12 13:35:54;;;;;;;;;;;;;;;16.15;56.28;101142.80;117429;1185;22602;-59
2021/11/12 13:38:33;;;;;;;;;;;;;;;16.07;56.30;101145.10;117308;1185;22439;-63
2021/11/12 13:41:11;;;;;;;;;;;;;;;16.02;56.28;101143.79;117334;1186;23453;-62
2021/11/12 13:43:39;;;;;;;;;;;;;;;15.95;56.14;101141.48;117283;1187;21849;-59
2021/11/12 13:46:08;;;;;;;;;;;;;;;15.84;56.16;101140.29;117377;1185;21836;-62
2021/11/12 13:48:42;;;;;;;;;;;;;;;15.70;56.12;101137.21;117358;1185;24143;-58
2021/11/12 13:51:11;;;;;;;;;;;;;;;15.52;56.09;101141.48;117318;1185;23540;-57
2021/11/12 13:53:39;;;;;;;;;;;;;;;15.38;55.91;101138.41;117163;1185;23452;-57
2021/11/12 13:56:08;;;;;;;;;;;;;;;15.21;55.90;101139.81;117139;1183;23458;-58
2021/11/12 13:58:40;;;;;;;;;;;;;;;15.02;55.92;101146.16;117365;1182;23223;-59
2021/11/12 14:01:19;;;;;;;;;;;;;;;14.87;55.89;101152.25;117428;1185;21928;-57
2021/11/12 14:03:49;;;;;;;;;;;;;;;14.77;55.90;101151.73;117330;1185;21852;-62
2021/11/12 14:06:19;;;;;;;;;;;;;;;14.65;55.82;101149.27;117430;1182;21838;-62
2021/11/12 14:08:48;;;;;;;;;;;;;;;14.52;55.78;101149.31;117415;1185;23423;-59
2021/11/12 14:11:24;;;;;;;;;;;;;;;14.35;55.77;101151.15;117363;1182;23512;-60
2021/11/12 14:13:53;;;;;;;;;;;;;;;14.21;55.81;101160.36;117459;1185;21832;-62
2021/11/12 14:16:26;;;;;;;;;;;;;;;14.09;55.74;101166.71;117438;1186;21881;-60
2021/11/12 14:22:28;;;;;;;;;;;;;;;13.81;55.76;101166.58;117418;1182;23528;-62
2021/11/12 14:45:54;;;;;;;;;;;;;;;12.41;55.43;101169.02;117309;1185;22225;-59
2021/11/12 14:48:36;;;;;;;;;;;;;;;12.24;55.42;101166.31;117377;1185;22532;-59
2021/11/12 14:51:11;;;;;;;;;;;;;;;12.08;55.32;101166.23;117376;1184;23423;-61
2021/11/12 14:53:51;;;;;;;;;;;;;;;11.94;55.49;101171.20;117437;1182;22905;-59
2021/11/12 14:56:24;;;;;;;;;;;;;;;11.92;55.43;101171.39;117536;1183;22969;-62
2021/11/12 14:59:06;;;;;;;;;;;;;;;11.74;55.39;101173.06;118446;1183;23528;-62
2021/11/12 15:01:38;;;;;;;;;;;;;;;11.69;55.51;101169.39;117553;1184;21838;-61
2021/11/12 15:04:08;;;;;;;;;;;;;;;11.51;55.54;101175.77;117583;1184;22010;-61
2021/11/12 15:06:36;;;;;;;;;;;;;;;11.36;55.47;101178.10;117428;1182;21969;-60
2021/11/12 15:09:17;;;;;;;;;;;;;;;11.22;55.56;101178.33;117384;1182;21891;-61
2021/11/12 15:11:49;;;;;;;;;;;;;;;11.11;55.68;101185.55;117540;1185;22894;-58
2021/11/12 15:14:33;;;;;;;;;;;;;;;11.13;55.48;101183.25;117500;1186;21829;-61
2021/11/12 15:17:04;;;;;;;;;;;;;;;10.98;55.64;101185.21;117410;1182;21838;-59
2021/11/12 15:19:38;;;;;;;;;;;;;;;10.88;55.51;101189.42;117409;1184;24155;-62
2021/11/12 15:30:47;;;;;;;;;;;;;;;10.63;55.54;101206.98;117167;1188;22030;-57
2021/11/12 15:33:17;;;;;;;;;;;;;;;10.45;55.61;101207.67;117457;1181;23547;-62
2021/11/12 15:35:47;;;;;;;;;;;;;;;10.39;55.76;101209.56;117542;1183;23445;-58
2021/11/12 15:38:28;;;;;;;;;;;;;;;10.33;55.82;101212.70;117481;1182;21982;-58
2021/11/12 15:41:01;;;;;;;;;;;;;;;10.24;55.53;101217.59;117563;1183;21829;-58
2021/11/12 15:43:40;;;;;;;;;;;;;;;10.16;55.53;101219.33;117677;1182;23537;-58
2021/11/12 15:46:21;;;;;;;;;;;;;;;10.04;55.49;101220.51;117397;1185;23041;-62
2021/11/12 15:48:50;;;;;;;;;;;;;;;9.90;55.35;101228.70;117532;1186;21847;-58
2021/11/12 16:16:09;;;;;;;;;;;;;;;9.11;55.54;101245.41;116940;1186;22414;-56
2021/11/12 16:18:46;;;;;;;;;;;;;;;9.06;55.50;101251.69;116948;1187;23439;-56
2021/11/12 16:26:22;;;;;;;;;;;;;;;8.97;55.67;101260.52;117015;1185;22908;-56
2021/11/12 16:29:08;;;;;;;;;;;;;;;8.99;55.41;101254.24;116959;1182;23491;-61
2021/11/12 16:31:39;;;;;;;;;;;;;;;8.89;55.56;101258.72;117022;1185;22992;-57
2021/11/12 16:34:14;;;;;;;;;;;;;;;8.85;55.69;101258.67;116925;1185;22613;-57
2021/11/12 16:37:01;;;;;;;;;;;;;;;8.92;55.48;101259.44;116952;1185;22722;-57
2021/11/12 16:39:34;;;;;;;;;;;;;;;9.47;54.26;101250.04;117251;1186;23528;-57
2021/11/12 16:42:23;;;;;;;;;;;;;;;9.16;54.72;101251.40;117399;1186;21842;-58
2021/11/12 16:47:30;;;;;;;;;;;;;;;8.76;55.61;101256.86;117392;1186;22602;-58
2021/11/12 16:55:29;;;;;;;;;;;;;;;8.67;55.26;101263.77;117404;1182;23791;-57
2021/11/12 16:58:11;;;;;;;;;;;;;;;8.39;55.11;101270.80;117477;1184;21836;-57
2021/11/12 17:11:15;;;;;;;;;;;;;;;7.81;55.49;101280.56;117625;1179;23002;-57
2021/11/12 17:13:51;;;;;;;;;;;;;;;7.74;55.26;101280.83;117503;1182;21876;-57
2021/11/12 17:19:16;;;;;;;;;;;;;;;7.65;55.45;101271.62;117515;1185;22305;-57
2021/11/12 17:46:46;;;;;;;;;;;;;;;7.47;55.54;101286.73;117420;1185;22973;-58
2021/11/12 18:03:09;;;;;;;;;;;;;;;7.06;55.54;101296.73;116983;1188;21841;-57
2021/11/12 18:05:44;;;;;;;;;;;;;;;6.98;55.25;101298.53;116982;1186;23845;-57
2021/11/12 21:48:11;;;;;;;;;;;;;;;4.05;55.08;101354.46;117363;1185;21844;-57
2021/11/12 21:50:40;;;;;;;;;;;;;;;4.04;55.17;101355.65;117476;1185;23557;-60
2021/11/12 21:53:09;;;;;;;;;;;;;;;4.04;55.01;101358.24;117576;1184;22236;-57
2021/11/12 21:55:38;;;;;;;;;;;;;;;4.06;55.45;101354.13;117557;1183;23442;-60
2021/11/12 21:58:07;;;;;;;;;;;;;;;4.08;55.14;101353.67;117538;1186;23449;-60
2021/11/12 22:00:37;;;;;;;;;;;;;;;4.09;55.24;101357.00;117460;1185;23512;-57
2021/11/12 22:03:05;;;;;;;;;;;;;;;4.09;55.31;101356.99;117551;1183;23425;-60
2021/11/12 22:05:33;;;;;;;;;;;;;;;4.05;55.18;101356.55;117599;1182;23423;-60
2021/11/12 22:08:02;;;;;;;;;;;;;;;4.01;55.06;101355.39;117539;1185;21887;-58
2021/11/12 22:10:31;;;;;;;;;;;;;;;3.99;55.35;101352.89;117415;1184;21826;-60
2021/11/12 22:13:00;;;;;;;;;;;;;;;3.97;55.29;101347.98;117466;1185;23516;-58
2021/11/12 22:15:29;;;;;;;;;;;;;;;3.98;55.32;101353.22;117416;1183;23449;-57
2021/11/12 22:17:57;;;;;;;;;;;;;;;3.98;55.23;101353.04;117500;1185;21842;-57
2021/11/12 22:20:28;;;;;;;;;;;;;;;3.96;55.26;101357.34;117420;1179;23426;-60
2021/11/12 22:22:56;;;;;;;;;;;;;;;3.98;55.19;101357.20;117632;1184;23449;-60
2021/11/12 22:25:25;;;;;;;;;;;;;;;4.01;55.16;101352.09;117564;1186;23423;-61
2021/11/12 22:27:53;;;;;;;;;;;;;;;4.04;55.42;101350.95;117531;1185;21870;-60
2021/11/12 22:30:21;;;;;;;;;;;;;;;4.04;55.19;101351.14;117489;1185;21846;-58
2021/11/12 22:32:50;;;;;;;;;;;;;;;4.02;55.11;101353.70;117519;1185;23456;-57
2021/11/12 22:35:18;;;;;;;;;;;;;;;4.00;55.17;101359.01;117533;1183;23881;-61
2021/11/12 22:37:47;;;;;;;;;;;;;;;3.99;55.34;101357.77;117537;1186;23448;-57
2021/11/12 22:40:15;;;;;;;;;;;;;;;3.99;55.36;101360.88;117570;1186;21838;-58
2021/11/12 22:42:43;;;;;;;;;;;;;;;3.98;55.48;101364.69;117629;1186;23523;-58
2021/11/12 22:45:12;;;;;;;;;;;;;;;4.00;55.53;101365.96;117437;1182;23433;-59
2021/11/12 22:47:41;;;;;;;;;;;;;;;4.02;55.47;101365.13;117537;1185;23448;-58
2021/11/12 22:50:09;;;;;;;;;;;;;;;4.04;55.54;101366.92;117405;1185;21890;-61
2021/11/12 22:52:38;;;;;;;;;;;;;;;4.07;55.54;101365.46;117384;1185;22918;-60
2021/11/12 22:55:06;;;;;;;;;;;;;;;4.10;55.58;101369.05;117374;1183;23410;-57
2021/11/12 22:57:35;;;;;;;;;;;;;;;4.13;55.57;101372.41;117431;1184;23445;-58
2021/11/12 23:00:15;;;;;;;;;;;;;;;4.17;55.56;101375.31;117343;1185;21838;-60
2021/11/12 23:02:43;;;;;;;;;;;;;;;4.20;55.73;101373.33;117393;1185;23423;-61
2021/11/12 23:05:12;;;;;;;;;;;;;;;4.23;55.60;101369.07;117435;1183;23006;-60
2021/11/12 23:07:40;;;;;;;;;;;;;;;4.26;55.65;101372.13;117427;1185;23452;-58
2021/11/12 23:10:09;;;;;;;;;;;;;;;4.32;55.70;101371.59;117326;1186;23457;-60
2021/11/12 23:12:37;;;;;;;;;;;;;;;4.36;55.59;101366.84;117389;1186;24246;-60
2021/11/12 23:15:08;;;;;;;;;;;;;;;4.42;55.64;101364.23;117366;1182;23421;-60
2021/11/12 23:17:37;;;;;;;;;;;;;;;4.45;55.53;101366.22;117347;1182;22918;-58